Puspokladany, Hungary
Current Conditions -  °F | °C
As of 8:42 AM on Thursday 27 Nov 2014 (Local Time) from LHDC Reporting Station
Freezing Drizzle Freezing Drizzle  
Wind Chill: 28°   Ceiling: 500
Heat Index: 28°   Visibility: 0.37mi
Dew Point: 28°   Wind: 3mph
Humidity: 100%   Direction: 110°ESE
Pressure: 30.24"   Gusts: NA
Location:  47.32°N, 21.12°E
Report Text: LHDC 270642Z 11003KT 0600 -FZDZ OVC005 M02/M02 Q1024
Loading
Personal Weather Stations






























Interactive Weather Map New forecast layout! Learn more

10-Day Weather Forecast

Advertisements
Track Severe Weather on mobile